Saint Gabriel, Louisiana
Current Conditions -  °F | °C
As of 8:55 AM on Sunday 21 Dec 2014 (Local Time) from KL38 Reporting Station
Overcast Overcast  
Wind Chill: 51°   Ceiling: 1000
Heat Index: 51°   Visibility: 10mi
Dew Point: 49°   Wind: 0mph
Humidity: 94%   Direction: NA
Pressure: 30.12"   Gusts: NA
Location:  30.26°N, 91.1°W
Report Text: KL38 211455Z AUTO 00000KT 10SM OVC010 11/10 A3012 RMK AO2 T01050095
Loading
Personal Weather Stations






























Interactive Weather Map New forecast layout! Learn more

10-Day Weather Forecast

Advertisements
Track Severe Weather on mobile